sensor_id;sensor_type;location;lat;lon;timestamp;P1;durP1;ratioP1;P2;durP2;ratioP2
78183;SDS011;67442;44.570;18.610;2023-06-14T00:02:15;10.18;;;3.63;;
78183;SDS011;67442;44.570;18.610;2023-06-14T00:04:42;8.98;;;2.78;;
78183;SDS011;67442;44.570;18.610;2023-06-14T00:07:11;6.45;;;3.15;;
78183;SDS011;67442;44.570;18.610;2023-06-14T00:09:44;7.35;;;3.00;;
78183;SDS011;67442;44.570;18.610;2023-06-14T00:12:11;7.38;;;3.03;;
78183;SDS011;67442;44.570;18.610;2023-06-14T00:14:42;4.82;;;2.85;;
78183;SDS011;67442;44.570;18.610;2023-06-14T00:17:10;7.32;;;2.80;;
78183;SDS011;67442;44.570;18.610;2023-06-14T00:19:36;6.07;;;3.05;;
78183;SDS011;67442;44.570;18.610;2023-06-14T00:22:04;5.95;;;3.22;;
78183;SDS011;67442;44.570;18.610;2023-06-14T00:24:36;5.90;;;3.08;;
78183;SDS011;67442;44.570;18.610;2023-06-14T00:27:03;10.13;;;3.45;;
78183;SDS011;67442;44.570;18.610;2023-06-14T00:29:31;9.65;;;3.10;;
78183;SDS011;67442;44.570;18.610;2023-06-14T00:31:59;14.30;;;3.42;;
78183;SDS011;67442;44.570;18.610;2023-06-14T00:34:30;5.43;;;2.85;;
78183;SDS011;67442;44.570;18.610;2023-06-14T00:36:58;7.70;;;2.78;;
78183;SDS011;67442;44.570;18.610;2023-06-14T00:39:25;9.43;;;2.80;;
78183;SDS011;67442;44.570;18.610;2023-06-14T00:41:52;5.43;;;2.72;;
78183;SDS011;67442;44.570;18.610;2023-06-14T00:44:19;4.68;;;2.65;;
78183;SDS011;67442;44.570;18.610;2023-06-14T00:46:51;6.63;;;2.50;;
78183;SDS011;67442;44.570;18.610;2023-06-14T00:49:22;4.93;;;2.60;;
78183;SDS011;67442;44.570;18.610;2023-06-14T00:51:54;8.30;;;2.65;;
78183;SDS011;67442;44.570;18.610;2023-06-14T00:54:24;6.47;;;2.70;;
78183;SDS011;67442;44.570;18.610;2023-06-14T00:56:52;6.50;;;2.97;;
78183;SDS011;67442;44.570;18.610;2023-06-14T00:59:19;4.95;;;2.45;;
78183;SDS011;67442;44.570;18.610;2023-06-14T01:01:47;7.22;;;2.67;;
78183;SDS011;67442;44.570;18.610;2023-06-14T01:04:14;7.18;;;2.67;;
78183;SDS011;67442;44.570;18.610;2023-06-14T01:09:46;6.55;;;3.00;;
78183;SDS011;67442;44.570;18.610;2023-06-14T01:12:27;9.50;;;3.03;;
78183;SDS011;67442;44.570;18.610;2023-06-14T01:15:11;4.65;;;2.70;;
78183;SDS011;67442;44.570;18.610;2023-06-14T01:17:40;6.85;;;2.90;;
78183;SDS011;67442;44.570;18.610;2023-06-14T01:20:13;4.47;;;2.65;;
78183;SDS011;67442;44.570;18.610;2023-06-14T01:22:53;5.68;;;2.88;;
78183;SDS011;67442;44.570;18.610;2023-06-14T01:25:37;12.60;;;3.00;;
78183;SDS011;67442;44.570;18.610;2023-06-14T01:28:06;6.15;;;2.85;;
78183;SDS011;67442;44.570;18.610;2023-06-14T01:30:37;7.93;;;2.90;;
78183;SDS011;67442;44.570;18.610;2023-06-14T01:33:10;9.10;;;2.92;;
78183;SDS011;67442;44.570;18.610;2023-06-14T01:35:41;6.40;;;2.95;;
78183;SDS011;67442;44.570;18.610;2023-06-14T01:38:09;5.90;;;2.83;;
78183;SDS011;67442;44.570;18.610;2023-06-14T01:40:38;8.63;;;2.90;;
78183;SDS011;67442;44.570;18.610;2023-06-14T01:43:05;3.63;;;2.45;;
78183;SDS011;67442;44.570;18.610;2023-06-14T01:45:33;5.82;;;2.88;;
78183;SDS011;67442;44.570;18.610;2023-06-14T01:48:00;4.32;;;2.60;;
78183;SDS011;67442;44.570;18.610;2023-06-14T01:50:28;6.18;;;2.78;;
78183;SDS011;67442;44.570;18.610;2023-06-14T01:52:58;4.63;;;2.58;;
78183;SDS011;67442;44.570;18.610;2023-06-14T01:55:24;6.95;;;3.25;;
78183;SDS011;67442;44.570;18.610;2023-06-14T01:57:51;6.22;;;3.08;;
78183;SDS011;67442;44.570;18.610;2023-06-14T02:00:18;5.57;;;3.10;;
78183;SDS011;67442;44.570;18.610;2023-06-14T02:02:46;5.68;;;2.60;;
78183;SDS011;67442;44.570;18.610;2023-06-14T02:05:14;15.05;;;3.78;;
78183;SDS011;67442;44.570;18.610;2023-06-14T02:07:44;8.32;;;2.60;;
78183;SDS011;67442;44.570;18.610;2023-06-14T02:10:12;8.80;;;2.78;;
78183;SDS011;67442;44.570;18.610;2023-06-14T02:12:43;16.02;;;2.95;;
78183;SDS011;67442;44.570;18.610;2023-06-14T02:15:10;4.78;;;2.45;;
78183;SDS011;67442;44.570;18.610;2023-06-14T02:17:42;17.50;;;3.08;;
78183;SDS011;67442;44.570;18.610;2023-06-14T02:20:15;4.78;;;2.58;;
78183;SDS011;67442;44.570;18.610;2023-06-14T02:22:42;5.22;;;2.50;;
78183;SDS011;67442;44.570;18.610;2023-06-14T02:25:13;6.47;;;2.47;;
78183;SDS011;67442;44.570;18.610;2023-06-14T02:27:41;4.45;;;2.75;;
78183;SDS011;67442;44.570;18.610;2023-06-14T02:30:07;5.97;;;2.60;;
78183;SDS011;67442;44.570;18.610;2023-06-14T02:32:37;4.60;;;2.78;;
78183;SDS011;67442;44.570;18.610;2023-06-14T02:35:06;4.82;;;3.00;;
78183;SDS011;67442;44.570;18.610;2023-06-14T02:37:36;3.72;;;2.28;;
78183;SDS011;67442;44.570;18.610;2023-06-14T02:40:04;5.07;;;2.75;;
78183;SDS011;67442;44.570;18.610;2023-06-14T02:42:36;4.57;;;2.70;;
78183;SDS011;67442;44.570;18.610;2023-06-14T02:45:04;4.07;;;2.58;;
78183;SDS011;67442;44.570;18.610;2023-06-14T02:47:33;4.82;;;2.55;;
78183;SDS011;67442;44.570;18.610;2023-06-14T02:50:04;4.32;;;2.50;;
78183;SDS011;67442;44.570;18.610;2023-06-14T02:52:34;5.80;;;2.42;;
78183;SDS011;67442;44.570;18.610;2023-06-14T02:55:01;6.13;;;2.83;;
78183;SDS011;67442;44.570;18.610;2023-06-14T02:57:29;4.40;;;2.50;;
78183;SDS011;67442;44.570;18.610;2023-06-14T02:59:56;4.70;;;2.50;;
78183;SDS011;67442;44.570;18.610;2023-06-14T03:02:26;4.18;;;2.47;;
78183;SDS011;67442;44.570;18.610;2023-06-14T03:04:54;7.30;;;2.88;;
78183;SDS011;67442;44.570;18.610;2023-06-14T03:07:21;4.18;;;2.30;;
78183;SDS011;67442;44.570;18.610;2023-06-14T03:09:48;6.60;;;3.05;;
78183;SDS011;67442;44.570;18.610;2023-06-14T03:12:17;4.03;;;2.35;;
78183;SDS011;67442;44.570;18.610;2023-06-14T03:14:44;6.13;;;2.40;;
78183;SDS011;67442;44.570;18.610;2023-06-14T03:17:12;5.38;;;2.50;;
78183;SDS011;67442;44.570;18.610;2023-06-14T03:19:39;6.57;;;2.60;;
78183;SDS011;67442;44.570;18.610;2023-06-14T03:22:07;4.47;;;2.65;;
78183;SDS011;67442;44.570;18.610;2023-06-14T03:24:34;7.00;;;2.70;;
78183;SDS011;67442;44.570;18.610;2023-06-14T03:27:02;4.55;;;2.40;;
78183;SDS011;67442;44.570;18.610;2023-06-14T03:29:29;4.15;;;2.25;;
78183;SDS011;67442;44.570;18.610;2023-06-14T03:32:01;3.70;;;2.55;;
78183;SDS011;67442;44.570;18.610;2023-06-14T03:34:29;10.63;;;2.83;;
78183;SDS011;67442;44.570;18.610;2023-06-14T03:36:56;5.30;;;2.28;;
78183;SDS011;67442;44.570;18.610;2023-06-14T03:39:23;10.85;;;2.50;;
78183;SDS011;67442;44.570;18.610;2023-06-14T03:41:51;4.47;;;2.70;;
78183;SDS011;67442;44.570;18.610;2023-06-14T03:44:18;4.95;;;2.72;;
78183;SDS011;67442;44.570;18.610;2023-06-14T03:46:46;6.85;;;2.42;;
78183;SDS011;67442;44.570;18.610;2023-06-14T03:49:16;5.97;;;2.65;;
78183;SDS011;67442;44.570;18.610;2023-06-14T03:51:47;4.53;;;2.40;;
78183;SDS011;67442;44.570;18.610;2023-06-14T03:54:19;3.80;;;2.38;;
78183;SDS011;67442;44.570;18.610;2023-06-14T03:56:50;4.35;;;2.28;;
78183;SDS011;67442;44.570;18.610;2023-06-14T03:59:18;4.32;;;2.78;;
78183;SDS011;67442;44.570;18.610;2023-06-14T04:01:45;7.45;;;2.30;;
78183;SDS011;67442;44.570;18.610;2023-06-14T04:04:16;5.07;;;2.42;;
78183;SDS011;67442;44.570;18.610;2023-06-14T04:06:44;4.13;;;2.30;;
78183;SDS011;67442;44.570;18.610;2023-06-14T04:09:13;4.90;;;2.35;;
78183;SDS011;67442;44.570;18.610;2023-06-14T04:11:41;3.53;;;2.50;;
78183;SDS011;67442;44.570;18.610;2023-06-14T04:14:08;6.25;;;2.40;;
78183;SDS011;67442;44.570;18.610;2023-06-14T04:16:36;4.57;;;2.55;;
78183;SDS011;67442;44.570;18.610;2023-06-14T04:19:03;6.00;;;2.75;;
78183;SDS011;67442;44.570;18.610;2023-06-14T04:21:30;6.60;;;2.30;;
78183;SDS011;67442;44.570;18.610;2023-06-14T04:24:00;3.95;;;2.20;;
78183;SDS011;67442;44.570;18.610;2023-06-14T04:26:28;5.18;;;2.75;;
78183;SDS011;67442;44.570;18.610;2023-06-14T04:29:01;6.50;;;2.67;;
78183;SDS011;67442;44.570;18.610;2023-06-14T04:31:29;8.63;;;3.20;;
78183;SDS011;67442;44.570;18.610;2023-06-14T04:33:59;6.38;;;2.40;;
78183;SDS011;67442;44.570;18.610;2023-06-14T04:36:26;6.07;;;2.50;;
78183;SDS011;67442;44.570;18.610;2023-06-14T04:38:54;609.58;;;102.00;;
78183;SDS011;67442;44.570;18.610;2023-06-14T04:41:24;692.47;;;112.88;;
78183;SDS011;67442;44.570;18.610;2023-06-14T04:43:59;607.88;;;111.30;;
78183;SDS011;67442;44.570;18.610;2023-06-14T04:46:28;459.13;;;84.47;;
78183;SDS011;67442;44.570;18.610;2023-06-14T04:49:14;402.83;;;76.25;;
78183;SDS011;67442;44.570;18.610;2023-06-14T04:51:41;369.08;;;68.20;;
78183;SDS011;67442;44.570;18.610;2023-06-14T04:54:09;338.48;;;66.75;;
78183;SDS011;67442;44.570;18.610;2023-06-14T04:56:39;325.27;;;59.50;;
78183;SDS011;67442;44.570;18.610;2023-06-14T04:59:25;289.23;;;56.13;;
78183;SDS011;67442;44.570;18.610;2023-06-14T05:01:53;303.77;;;55.03;;
78183;SDS011;67442;44.570;18.610;2023-06-14T05:04:25;269.25;;;49.42;;
78183;SDS011;67442;44.570;18.610;2023-06-14T05:06:52;239.57;;;46.58;;
78183;SDS011;67442;44.570;18.610;2023-06-14T05:09:20;248.68;;;43.92;;
78183;SDS011;67442;44.570;18.610;2023-06-14T05:11:48;221.48;;;43.17;;
78183;SDS011;67442;44.570;18.610;2023-06-14T05:14:16;224.55;;;42.10;;
78183;SDS011;67442;44.570;18.610;2023-06-14T05:16:47;210.13;;;41.33;;
78183;SDS011;67442;44.570;18.610;2023-06-14T05:19:14;204.07;;;39.85;;
78183;SDS011;67442;44.570;18.610;2023-06-14T05:21:43;209.18;;;42.42;;
78183;SDS011;67442;44.570;18.610;2023-06-14T05:24:10;219.77;;;39.97;;
78183;SDS011;67442;44.570;18.610;2023-06-14T05:26:38;210.07;;;39.47;;
78183;SDS011;67442;44.570;18.610;2023-06-14T05:29:05;219.32;;;40.90;;
78183;SDS011;67442;44.570;18.610;2023-06-14T05:31:32;184.40;;;38.67;;
78183;SDS011;67442;44.570;18.610;2023-06-14T05:34:04;197.10;;;38.28;;
78183;SDS011;67442;44.570;18.610;2023-06-14T05:36:31;175.88;;;37.33;;
78183;SDS011;67442;44.570;18.610;2023-06-14T05:38:58;193.35;;;38.22;;
78183;SDS011;67442;44.570;18.610;2023-06-14T05:41:26;184.65;;;36.42;;
78183;SDS011;67442;44.570;18.610;2023-06-14T05:43:55;195.25;;;38.45;;
78183;SDS011;67442;44.570;18.610;2023-06-14T05:46:22;172.45;;;38.20;;
78183;SDS011;67442;44.570;18.610;2023-06-14T05:48:54;193.00;;;37.63;;
78183;SDS011;67442;44.570;18.610;2023-06-14T05:51:22;192.80;;;37.25;;
78183;SDS011;67442;44.570;18.610;2023-06-14T05:53:52;184.65;;;36.40;;
78183;SDS011;67442;44.570;18.610;2023-06-14T05:56:20;164.50;;;35.67;;
78183;SDS011;67442;44.570;18.610;2023-06-14T05:58:47;158.40;;;34.40;;
78183;SDS011;67442;44.570;18.610;2023-06-14T06:01:14;168.63;;;33.47;;
78183;SDS011;67442;44.570;18.610;2023-06-14T06:03:42;163.73;;;34.88;;
78183;SDS011;67442;44.570;18.610;2023-06-14T06:06:12;152.20;;;32.45;;
78183;SDS011;67442;44.570;18.610;2023-06-14T06:08:38;155.50;;;32.38;;
78183;SDS011;67442;44.570;18.610;2023-06-14T06:11:06;139.75;;;31.77;;
78183;SDS011;67442;44.570;18.610;2023-06-14T06:13:33;151.68;;;32.60;;
78183;SDS011;67442;44.570;18.610;2023-06-14T06:16:01;154.98;;;30.38;;
78183;SDS011;67442;44.570;18.610;2023-06-14T06:18:29;146.88;;;32.80;;
78183;SDS011;67442;44.570;18.610;2023-06-14T06:20:56;154.05;;;31.33;;
78183;SDS011;67442;44.570;18.610;2023-06-14T06:23:23;119.22;;;29.00;;
78183;SDS011;67442;44.570;18.610;2023-06-14T06:25:50;138.68;;;29.35;;
78183;SDS011;67442;44.570;18.610;2023-06-14T06:28:18;141.50;;;30.83;;
78183;SDS011;67442;44.570;18.610;2023-06-14T06:30:45;127.72;;;27.95;;
78183;SDS011;67442;44.570;18.610;2023-06-14T06:33:13;129.10;;;27.10;;
78183;SDS011;67442;44.570;18.610;2023-06-14T06:35:40;132.43;;;29.45;;
78183;SDS011;67442;44.570;18.610;2023-06-14T06:38:07;130.25;;;30.25;;
78183;SDS011;67442;44.570;18.610;2023-06-14T06:40:35;131.98;;;28.70;;
78183;SDS011;67442;44.570;18.610;2023-06-14T06:43:02;124.68;;;27.35;;
78183;SDS011;67442;44.570;18.610;2023-06-14T06:45:30;127.45;;;27.75;;
78183;SDS011;67442;44.570;18.610;2023-06-14T06:47:56;125.90;;;27.52;;
78183;SDS011;67442;44.570;18.610;2023-06-14T06:50:23;123.78;;;26.98;;
78183;SDS011;67442;44.570;18.610;2023-06-14T06:52:51;100.38;;;25.83;;
78183;SDS011;67442;44.570;18.610;2023-06-14T06:55:19;107.72;;;27.17;;
78183;SDS011;67442;44.570;18.610;2023-06-14T06:57:45;110.28;;;26.90;;
78183;SDS011;67442;44.570;18.610;2023-06-14T07:00:13;114.90;;;25.88;;
78183;SDS011;67442;44.570;18.610;2023-06-14T07:02:43;109.38;;;27.30;;
78183;SDS011;67442;44.570;18.610;2023-06-14T07:05:10;98.93;;;24.90;;
78183;SDS011;67442;44.570;18.610;2023-06-14T07:07:36;119.93;;;27.48;;
78183;SDS011;67442;44.570;18.610;2023-06-14T07:10:08;107.25;;;25.63;;
78183;SDS011;67442;44.570;18.610;2023-06-14T07:12:36;103.97;;;24.27;;
78183;SDS011;67442;44.570;18.610;2023-06-14T07:15:07;97.57;;;25.33;;
78183;SDS011;67442;44.570;18.610;2023-06-14T07:17:35;108.43;;;23.70;;
78183;SDS011;67442;44.570;18.610;2023-06-14T07:20:03;104.05;;;25.05;;
78183;SDS011;67442;44.570;18.610;2023-06-14T07:22:53;104.88;;;24.02;;
78183;SDS011;67442;44.570;18.610;2023-06-14T07:25:21;90.15;;;24.27;;
78183;SDS011;67442;44.570;18.610;2023-06-14T07:27:52;112.05;;;26.20;;
78183;SDS011;67442;44.570;18.610;2023-06-14T07:30:22;97.43;;;25.55;;
78183;SDS011;67442;44.570;18.610;2023-06-14T07:32:55;87.05;;;24.40;;
78183;SDS011;67442;44.570;18.610;2023-06-14T07:35:26;93.35;;;24.85;;
78183;SDS011;67442;44.570;18.610;2023-06-14T07:37:53;90.57;;;23.75;;
78183;SDS011;67442;44.570;18.610;2023-06-14T07:40:21;86.65;;;22.33;;
78183;SDS011;67442;44.570;18.610;2023-06-14T07:42:48;82.18;;;21.23;;
78183;SDS011;67442;44.570;18.610;2023-06-14T07:45:16;101.75;;;22.83;;
78183;SDS011;67442;44.570;18.610;2023-06-14T07:47:43;97.05;;;22.48;;
78183;SDS011;67442;44.570;18.610;2023-06-14T07:50:11;82.35;;;21.58;;
78183;SDS011;67442;44.570;18.610;2023-06-14T07:52:39;97.20;;;21.45;;
78183;SDS011;67442;44.570;18.610;2023-06-14T07:55:06;84.05;;;21.88;;
78183;SDS011;67442;44.570;18.610;2023-06-14T07:57:35;90.00;;;23.00;;
78183;SDS011;67442;44.570;18.610;2023-06-14T08:00:03;82.03;;;20.27;;
78183;SDS011;67442;44.570;18.610;2023-06-14T08:02:32;75.03;;;21.02;;
78183;SDS011;67442;44.570;18.610;2023-06-14T08:04:59;93.43;;;22.40;;
78183;SDS011;67442;44.570;18.610;2023-06-14T08:07:26;79.78;;;20.73;;
78183;SDS011;67442;44.570;18.610;2023-06-14T08:09:54;92.65;;;21.35;;
78183;SDS011;67442;44.570;18.610;2023-06-14T08:12:21;72.00;;;20.55;;
78183;SDS011;67442;44.570;18.610;2023-06-14T08:14:48;75.10;;;20.30;;
78183;SDS011;67442;44.570;18.610;2023-06-14T08:17:19;86.10;;;20.10;;
78183;SDS011;67442;44.570;18.610;2023-06-14T08:19:50;73.22;;;21.13;;
78183;SDS011;67442;44.570;18.610;2023-06-14T08:22:20;71.40;;;19.98;;
78183;SDS011;67442;44.570;18.610;2023-06-14T08:24:47;74.88;;;19.75;;
78183;SDS011;67442;44.570;18.610;2023-06-14T08:27:14;69.20;;;20.60;;
78183;SDS011;67442;44.570;18.610;2023-06-14T08:29:43;70.70;;;19.88;;
78183;SDS011;67442;44.570;18.610;2023-06-14T08:32:10;77.45;;;20.52;;
78183;SDS011;67442;44.570;18.610;2023-06-14T08:34:37;68.68;;;19.08;;
78183;SDS011;67442;44.570;18.610;2023-06-14T08:37:05;63.60;;;17.95;;
78183;SDS011;67442;44.570;18.610;2023-06-14T08:39:33;68.22;;;19.45;;
78183;SDS011;67442;44.570;18.610;2023-06-14T08:42:01;64.80;;;18.80;;
78183;SDS011;67442;44.570;18.610;2023-06-14T08:44:29;56.97;;;18.25;;
78183;SDS011;67442;44.570;18.610;2023-06-14T08:46:56;72.43;;;19.35;;
78183;SDS011;67442;44.570;18.610;2023-06-14T08:49:23;77.10;;;19.27;;
78183;SDS011;67442;44.570;18.610;2023-06-14T08:51:56;58.75;;;16.98;;
78183;SDS011;67442;44.570;18.610;2023-06-14T08:54:27;72.07;;;19.63;;
78183;SDS011;67442;44.570;18.610;2023-06-14T08:57:02;57.85;;;17.48;;
78183;SDS011;67442;44.570;18.610;2023-06-14T08:59:33;61.80;;;17.70;;
78183;SDS011;67442;44.570;18.610;2023-06-14T09:02:05;64.40;;;18.88;;
78183;SDS011;67442;44.570;18.610;2023-06-14T09:04:41;70.18;;;18.05;;
78183;SDS011;67442;44.570;18.610;2023-06-14T09:07:08;57.72;;;16.42;;
78183;SDS011;67442;44.570;18.610;2023-06-14T09:09:39;63.92;;;17.85;;
78183;SDS011;67442;44.570;18.610;2023-06-14T09:12:08;59.17;;;17.65;;
78183;SDS011;67442;44.570;18.610;2023-06-14T09:14:37;59.35;;;17.25;;
78183;SDS011;67442;44.570;18.610;2023-06-14T09:17:06;67.40;;;17.95;;
78183;SDS011;67442;44.570;18.610;2023-06-14T09:19:33;52.55;;;15.70;;
78183;SDS011;67442;44.570;18.610;2023-06-14T09:22:03;57.50;;;15.75;;
78183;SDS011;67442;44.570;18.610;2023-06-14T09:24:31;55.17;;;16.13;;
78183;SDS011;67442;44.570;18.610;2023-06-14T09:27:02;54.65;;;16.55;;
78183;SDS011;67442;44.570;18.610;2023-06-14T09:29:30;57.97;;;16.75;;
78183;SDS011;67442;44.570;18.610;2023-06-14T09:32:01;54.40;;;15.20;;
78183;SDS011;67442;44.570;18.610;2023-06-14T09:34:30;61.00;;;17.42;;
78183;SDS011;67442;44.570;18.610;2023-06-14T09:36:58;49.13;;;16.48;;
78183;SDS011;67442;44.570;18.610;2023-06-14T09:39:26;55.05;;;16.33;;
78183;SDS011;67442;44.570;18.610;2023-06-14T09:41:53;51.13;;;15.55;;
78183;SDS011;67442;44.570;18.610;2023-06-14T09:44:21;53.63;;;15.75;;
78183;SDS011;67442;44.570;18.610;2023-06-14T09:46:50;51.63;;;15.77;;
78183;SDS011;67442;44.570;18.610;2023-06-14T09:49:19;51.88;;;15.25;;
78183;SDS011;67442;44.570;18.610;2023-06-14T09:51:48;51.92;;;15.35;;
78183;SDS011;67442;44.570;18.610;2023-06-14T09:54:20;47.28;;;15.25;;
78183;SDS011;67442;44.570;18.610;2023-06-14T09:56:51;56.13;;;15.45;;
78183;SDS011;67442;44.570;18.610;2023-06-14T09:59:19;50.00;;;15.43;;
78183;SDS011;67442;44.570;18.610;2023-06-14T10:01:52;48.50;;;15.40;;
78183;SDS011;67442;44.570;18.610;2023-06-14T10:04:23;53.10;;;15.30;;
78183;SDS011;67442;44.570;18.610;2023-06-14T10:06:51;48.38;;;14.57;;
78183;SDS011;67442;44.570;18.610;2023-06-14T10:09:20;49.42;;;15.25;;
78183;SDS011;67442;44.570;18.610;2023-06-14T10:11:52;44.33;;;14.70;;
78183;SDS011;67442;44.570;18.610;2023-06-14T10:14:19;46.67;;;15.02;;
78183;SDS011;67442;44.570;18.610;2023-06-14T10:20:07;51.35;;;15.27;;
78183;SDS011;67442;44.570;18.610;2023-06-14T10:23:17;50.00;;;14.95;;
78183;SDS011;67442;44.570;18.610;2023-06-14T10:25:45;46.67;;;14.73;;
78183;SDS011;67442;44.570;18.610;2023-06-14T10:28:24;38.80;;;14.63;;
78183;SDS011;67442;44.570;18.610;2023-06-14T10:31:08;50.97;;;14.18;;
78183;SDS011;67442;44.570;18.610;2023-06-14T10:33:49;44.30;;;13.95;;
78183;SDS011;67442;44.570;18.610;2023-06-14T10:41:29;41.78;;;13.85;;
78183;SDS011;67442;44.570;18.610;2023-06-14T10:46:49;41.75;;;13.70;;
78183;SDS011;67442;44.570;18.610;2023-06-14T10:49:19;41.63;;;13.05;;
78183;SDS011;67442;44.570;18.610;2023-06-14T10:51:49;41.30;;;13.80;;
78183;SDS011;67442;44.570;18.610;2023-06-14T10:54:18;40.70;;;13.35;;
78183;SDS011;67442;44.570;18.610;2023-06-14T10:56:47;39.85;;;14.40;;
78183;SDS011;67442;44.570;18.610;2023-06-14T10:59:18;40.83;;;12.90;;
78183;SDS011;67442;44.570;18.610;2023-06-14T11:04:34;42.58;;;13.70;;
78183;SDS011;67442;44.570;18.610;2023-06-14T11:07:37;41.85;;;12.68;;
78183;SDS011;67442;44.570;18.610;2023-06-14T11:10:40;38.63;;;13.43;;
78183;SDS011;67442;44.570;18.610;2023-06-14T11:13:11;42.28;;;13.50;;
78183;SDS011;67442;44.570;18.610;2023-06-14T11:15:38;45.95;;;12.60;;
78183;SDS011;67442;44.570;18.610;2023-06-14T11:20:36;45.15;;;13.57;;
78183;SDS011;67442;44.570;18.610;2023-06-14T11:23:07;42.83;;;13.55;;
78183;SDS011;67442;44.570;18.610;2023-06-14T11:25:38;37.97;;;12.68;;
78183;SDS011;67442;44.570;18.610;2023-06-14T11:28:09;36.22;;;12.25;;
78183;SDS011;67442;44.570;18.610;2023-06-14T11:30:36;38.80;;;12.27;;
78183;SDS011;67442;44.570;18.610;2023-06-14T11:33:03;36.40;;;13.02;;
78183;SDS011;67442;44.570;18.610;2023-06-14T11:35:31;38.35;;;12.23;;
78183;SDS011;67442;44.570;18.610;2023-06-14T11:38:01;30.88;;;11.05;;
78183;SDS011;67442;44.570;18.610;2023-06-14T11:40:27;40.15;;;13.32;;
78183;SDS011;67442;44.570;18.610;2023-06-14T11:43:01;38.75;;;13.40;;
78183;SDS011;67442;44.570;18.610;2023-06-14T11:45:29;44.08;;;13.20;;
78183;SDS011;67442;44.570;18.610;2023-06-14T11:47:56;35.13;;;12.23;;
78183;SDS011;67442;44.570;18.610;2023-06-14T11:50:23;35.42;;;12.18;;
78183;SDS011;67442;44.570;18.610;2023-06-14T11:52:57;32.80;;;11.55;;
78183;SDS011;67442;44.570;18.610;2023-06-14T11:55:41;36.63;;;12.70;;
78183;SDS011;67442;44.570;18.610;2023-06-14T11:58:14;35.95;;;12.40;;
78183;SDS011;67442;44.570;18.610;2023-06-14T12:00:41;38.17;;;12.50;;
78183;SDS011;67442;44.570;18.610;2023-06-14T12:03:09;37.58;;;12.02;;
78183;SDS011;67442;44.570;18.610;2023-06-14T12:05:38;32.35;;;11.50;;
78183;SDS011;67442;44.570;18.610;2023-06-14T12:08:05;35.35;;;11.70;;
78183;SDS011;67442;44.570;18.610;2023-06-14T12:10:40;32.13;;;11.80;;
78183;SDS011;67442;44.570;18.610;2023-06-14T12:13:09;36.05;;;12.40;;
78183;SDS011;67442;44.570;18.610;2023-06-14T12:15:36;36.25;;;11.82;;
78183;SDS011;67442;44.570;18.610;2023-06-14T12:18:07;33.60;;;11.35;;
78183;SDS011;67442;44.570;18.610;2023-06-14T12:20:36;33.53;;;11.68;;
78183;SDS011;67442;44.570;18.610;2023-06-14T12:23:06;30.02;;;11.38;;
78183;SDS011;67442;44.570;18.610;2023-06-14T12:25:38;36.67;;;12.48;;
78183;SDS011;67442;44.570;18.610;2023-06-14T12:28:06;35.47;;;11.50;;
78183;SDS011;67442;44.570;18.610;2023-06-14T12:30:39;28.15;;;10.63;;
78183;SDS011;67442;44.570;18.610;2023-06-14T12:33:06;29.33;;;11.05;;
78183;SDS011;67442;44.570;18.610;2023-06-14T12:35:33;30.25;;;11.38;;
78183;SDS011;67442;44.570;18.610;2023-06-14T12:40:26;28.83;;;11.25;;
78183;SDS011;67442;44.570;18.610;2023-06-14T12:42:54;28.50;;;10.68;;
78183;SDS011;67442;44.570;18.610;2023-06-14T12:45:21;32.22;;;11.73;;
78183;SDS011;67442;44.570;18.610;2023-06-14T12:47:48;31.77;;;11.48;;
78183;SDS011;67442;44.570;18.610;2023-06-14T12:50:17;36.40;;;10.85;;
78183;SDS011;67442;44.570;18.610;2023-06-14T12:52:48;30.58;;;10.77;;
78183;SDS011;67442;44.570;18.610;2023-06-14T12:55:15;36.28;;;11.90;;
78183;SDS011;67442;44.570;18.610;2023-06-14T12:57:44;34.90;;;11.75;;
78183;SDS011;67442;44.570;18.610;2023-06-14T13:00:11;28.45;;;11.35;;
78183;SDS011;67442;44.570;18.610;2023-06-14T13:02:43;30.92;;;11.68;;
78183;SDS011;67442;44.570;18.610;2023-06-14T13:05:10;32.65;;;11.30;;
78183;SDS011;67442;44.570;18.610;2023-06-14T13:07:41;34.20;;;11.05;;
78183;SDS011;67442;44.570;18.610;2023-06-14T13:10:12;25.00;;;10.77;;
78183;SDS011;67442;44.570;18.610;2023-06-14T13:12:39;28.85;;;10.50;;
78183;SDS011;67442;44.570;18.610;2023-06-14T13:15:07;33.42;;;10.80;;
78183;SDS011;67442;44.570;18.610;2023-06-14T13:17:35;29.38;;;10.93;;
78183;SDS011;67442;44.570;18.610;2023-06-14T13:20:07;31.50;;;10.40;;
78183;SDS011;67442;44.570;18.610;2023-06-14T13:22:50;30.90;;;11.20;;
78183;SDS011;67442;44.570;18.610;2023-06-14T13:25:21;26.23;;;10.75;;
78183;SDS011;67442;44.570;18.610;2023-06-14T13:27:52;32.38;;;10.73;;
78183;SDS011;67442;44.570;18.610;2023-06-14T13:30:19;25.30;;;9.75;;
78183;SDS011;67442;44.570;18.610;2023-06-14T13:32:47;29.80;;;10.00;;
78183;SDS011;67442;44.570;18.610;2023-06-14T13:35:14;25.92;;;10.07;;
78183;SDS011;67442;44.570;18.610;2023-06-14T13:37:42;27.48;;;10.43;;
78183;SDS011;67442;44.570;18.610;2023-06-14T13:40:13;31.10;;;10.10;;
78183;SDS011;67442;44.570;18.610;2023-06-14T13:42:41;25.95;;;9.45;;
78183;SDS011;67442;44.570;18.610;2023-06-14T13:45:08;26.40;;;9.90;;
78183;SDS011;67442;44.570;18.610;2023-06-14T13:47:40;26.00;;;10.20;;
78183;SDS011;67442;44.570;18.610;2023-06-14T13:50:11;26.10;;;9.73;;
78183;SDS011;67442;44.570;18.610;2023-06-14T13:52:38;25.60;;;9.70;;
78183;SDS011;67442;44.570;18.610;2023-06-14T13:55:10;31.02;;;10.23;;
78183;SDS011;67442;44.570;18.610;2023-06-14T13:57:37;30.00;;;9.77;;
78183;SDS011;67442;44.570;18.610;2023-06-14T14:00:04;25.45;;;10.05;;
78183;SDS011;67442;44.570;18.610;2023-06-14T14:02:35;26.17;;;10.05;;
78183;SDS011;67442;44.570;18.610;2023-06-14T14:05:02;20.42;;;9.02;;
78183;SDS011;67442;44.570;18.610;2023-06-14T14:07:29;25.15;;;9.27;;
78183;SDS011;67442;44.570;18.610;2023-06-14T14:09:56;27.95;;;10.18;;
78183;SDS011;67442;44.570;18.610;2023-06-14T14:12:23;24.25;;;9.25;;
78183;SDS011;67442;44.570;18.610;2023-06-14T14:14:50;25.13;;;9.80;;
78183;SDS011;67442;44.570;18.610;2023-06-14T14:17:18;27.08;;;10.27;;
78183;SDS011;67442;44.570;18.610;2023-06-14T14:19:45;29.70;;;10.27;;
78183;SDS011;67442;44.570;18.610;2023-06-14T14:22:12;29.63;;;9.73;;
78183;SDS011;67442;44.570;18.610;2023-06-14T14:24:39;29.20;;;9.20;;
78183;SDS011;67442;44.570;18.610;2023-06-14T14:27:06;25.50;;;9.27;;
78183;SDS011;67442;44.570;18.610;2023-06-14T14:29:34;25.25;;;9.35;;
78183;SDS011;67442;44.570;18.610;2023-06-14T14:32:01;26.52;;;9.60;;
78183;SDS011;67442;44.570;18.610;2023-06-14T14:34:29;21.35;;;8.43;;
78183;SDS011;67442;44.570;18.610;2023-06-14T14:36:57;21.55;;;9.07;;
78183;SDS011;67442;44.570;18.610;2023-06-14T14:39:24;24.00;;;9.63;;
78183;SDS011;67442;44.570;18.610;2023-06-14T14:41:51;25.25;;;9.63;;
78183;SDS011;67442;44.570;18.610;2023-06-14T14:44:18;24.42;;;9.20;;
78183;SDS011;67442;44.570;18.610;2023-06-14T14:46:45;21.60;;;8.90;;
78183;SDS011;67442;44.570;18.610;2023-06-14T14:49:13;25.65;;;9.30;;
78183;SDS011;67442;44.570;18.610;2023-06-14T14:51:39;20.77;;;9.23;;